sensor_id;sensor_type;location;lat;lon;timestamp;pressure;altitude;pressure_sealevel;temperature;humidity
58821;BME280;70670;52.476;13.334;2023-07-08T00:02:12;101520.84;;;20.32;48.17
58821;BME280;70670;52.476;13.334;2023-07-08T00:04:39;101414.31;;;19.63;48.33
58821;BME280;70670;52.476;13.334;2023-07-08T00:07:07;101516.22;;;20.12;47.73
58821;BME280;70670;52.476;13.334;2023-07-08T00:09:35;101532.63;;;20.10;48.23
58821;BME280;70670;52.476;13.334;2023-07-08T00:12:01;101514.63;;;19.98;48.44
58821;BME280;70670;52.476;13.334;2023-07-08T00:14:27;101516.63;;;19.96;48.48
58821;BME280;70670;52.476;13.334;2023-07-08T00:16:52;101523.31;;;19.92;48.34
58821;BME280;70670;52.476;13.334;2023-07-08T00:19:18;101458.34;;;19.55;48.43
58821;BME280;70670;52.476;13.334;2023-07-08T00:21:45;101523.31;;;19.92;48.10
58821;BME280;70670;52.476;13.334;2023-07-08T00:24:11;101514.63;;;19.87;48.93
58821;BME280;70670;52.476;13.334;2023-07-08T00:26:37;101517.72;;;19.82;48.74
58821;BME280;70670;52.476;13.334;2023-07-08T00:29:08;101518.59;;;19.83;48.95
58821;BME280;70670;52.476;13.334;2023-07-08T00:31:34;101516.25;;;19.78;49.12
58821;BME280;70670;52.476;13.334;2023-07-08T00:34:00;101519.97;;;19.77;48.66
58821;BME280;70670;52.476;13.334;2023-07-08T00:36:29;101491.09;;;19.65;48.69
58821;BME280;70670;52.476;13.334;2023-07-08T00:38:58;101519.13;;;19.77;48.55
58821;BME280;70670;52.476;13.334;2023-07-08T00:41:37;101517.63;;;19.73;48.85
58821;BME280;70670;52.476;13.334;2023-07-08T00:44:10;101517.88;;;19.70;48.26
58821;BME280;70670;52.476;13.334;2023-07-08T00:46:57;101527.50;;;19.74;48.79
58821;BME280;70670;52.476;13.334;2023-07-08T00:49:34;101526.75;;;19.72;48.45
58821;BME280;70670;52.476;13.334;2023-07-08T00:52:20;101522.22;;;19.72;49.24
58821;BME280;70670;52.476;13.334;2023-07-08T00:54:49;101524.41;;;19.67;48.98
58821;BME280;70670;52.476;13.334;2023-07-08T00:57:15;101520.34;;;19.61;49.06
58821;BME280;70670;52.476;13.334;2023-07-08T00:59:49;101520.34;;;19.61;49.37
58821;BME280;70670;52.476;13.334;2023-07-08T01:02:18;101507.97;;;19.57;48.88
58821;BME280;70670;52.476;13.334;2023-07-08T01:04:51;101509.44;;;19.50;49.12
58821;BME280;70670;52.476;13.334;2023-07-08T01:07:19;101501.91;;;19.42;49.59
58821;BME280;70670;52.476;13.334;2023-07-08T01:09:50;101474.41;;;19.25;49.25
58821;BME280;70670;52.476;13.334;2023-07-08T01:12:21;101468.47;;;19.20;49.34
58821;BME280;70670;52.476;13.334;2023-07-08T01:14:48;101520.53;;;19.47;49.82
58821;BME280;70670;52.476;13.334;2023-07-08T01:17:19;101506.47;;;19.42;49.80
58821;BME280;70670;52.476;13.334;2023-07-08T01:19:45;101441.81;;;19.02;49.50
58821;BME280;70670;52.476;13.334;2023-07-08T01:22:11;101488.69;;;19.27;49.91
58821;BME280;70670;52.476;13.334;2023-07-08T01:24:38;101482.03;;;19.20;49.98
58821;BME280;70670;52.476;13.334;2023-07-08T01:27:07;101501.03;;;19.31;50.21
58821;BME280;70670;52.476;13.334;2023-07-08T01:29:33;101506.72;;;19.28;50.46
58821;BME280;70670;52.476;13.334;2023-07-08T01:31:59;101455.84;;;18.96;50.41
58821;BME280;70670;52.476;13.334;2023-07-08T01:34:37;101507.22;;;19.22;50.46
58821;BME280;70670;52.476;13.334;2023-07-08T01:37:04;101501.53;;;19.13;51.01
58821;BME280;70670;52.476;13.334;2023-07-08T01:39:32;101496.34;;;19.10;50.32
58821;BME280;70670;52.476;13.334;2023-07-08T01:41:58;101493.13;;;19.05;50.90
58821;BME280;70670;52.476;13.334;2023-07-08T01:44:29;101500.41;;;19.05;51.42
58821;BME280;70670;52.476;13.334;2023-07-08T01:47:19;101446.41;;;18.66;51.22
58821;BME280;70670;52.476;13.334;2023-07-08T01:49:45;101454.03;;;18.61;52.23
58821;BME280;70670;52.476;13.334;2023-07-08T01:52:12;101490.13;;;18.86;52.12
58821;BME280;70670;52.476;13.334;2023-07-08T01:54:37;101493.06;;;18.83;52.03
58821;BME280;70670;52.476;13.334;2023-07-08T01:57:03;101496.00;;;18.80;52.07
58821;BME280;70670;52.476;13.334;2023-07-08T01:59:29;101490.34;;;18.83;51.92
58821;BME280;70670;52.476;13.334;2023-07-08T02:01:55;101443.66;;;18.55;52.01
58821;BME280;70670;52.476;13.334;2023-07-08T02:04:25;101490.47;;;18.81;51.99
58821;BME280;70670;52.476;13.334;2023-07-08T02:06:55;101430.28;;;18.41;51.75
58821;BME280;70670;52.476;13.334;2023-07-08T02:09:21;101488.59;;;18.71;52.05
58821;BME280;70670;52.476;13.334;2023-07-08T02:11:46;101456.94;;;18.47;51.87
58821;BME280;70670;52.476;13.334;2023-07-08T02:14:12;101426.94;;;18.26;51.65
58821;BME280;70670;52.476;13.334;2023-07-08T02:16:38;101382.84;;;18.00;52.28
58821;BME280;70670;52.476;13.334;2023-07-08T02:19:03;101429.41;;;18.29;52.20
58821;BME280;70670;52.476;13.334;2023-07-08T02:21:29;101434.47;;;18.34;52.25
58821;BME280;70670;52.476;13.334;2023-07-08T02:23:56;101482.63;;;18.65;52.37
58821;BME280;70670;52.476;13.334;2023-07-08T02:26:22;101486.22;;;18.66;52.89
58821;BME280;70670;52.476;13.334;2023-07-08T02:28:48;101420.66;;;18.26;53.15
58821;BME280;70670;52.476;13.334;2023-07-08T02:31:14;101440.13;;;18.31;52.82
58821;BME280;70670;52.476;13.334;2023-07-08T02:33:39;101485.75;;;18.48;52.68
58821;BME280;70670;52.476;13.334;2023-07-08T02:36:05;101486.25;;;18.42;52.80
58821;BME280;70670;52.476;13.334;2023-07-08T02:38:31;101373.19;;;17.72;52.83
58821;BME280;70670;52.476;13.334;2023-07-08T02:40:57;101481.91;;;18.39;53.29
58821;BME280;70670;52.476;13.334;2023-07-08T02:43:22;101481.97;;;18.27;53.30
58821;BME280;70670;52.476;13.334;2023-07-08T02:45:49;101485.91;;;18.23;53.15
58821;BME280;70670;52.476;13.334;2023-07-08T02:48:17;101486.75;;;18.23;53.42
58821;BME280;70670;52.476;13.334;2023-07-08T02:50:43;101478.69;;;18.10;53.08
58821;BME280;70670;52.476;13.334;2023-07-08T02:53:09;101485.47;;;18.16;53.14
58821;BME280;70670;52.476;13.334;2023-07-08T02:55:35;101491.03;;;18.14;53.53
58821;BME280;70670;52.476;13.334;2023-07-08T02:58:00;101482.06;;;18.01;53.34
58821;BME280;70670;52.476;13.334;2023-07-08T03:00:26;101466.06;;;17.98;53.47
58821;BME280;70670;52.476;13.334;2023-07-08T03:02:51;101488.41;;;18.13;53.47
58821;BME280;70670;52.476;13.334;2023-07-08T03:05:17;101486.59;;;18.13;53.26
58821;BME280;70670;52.476;13.334;2023-07-08T03:07:43;101470.56;;;18.10;53.16
58821;BME280;70670;52.476;13.334;2023-07-08T03:10:09;101479.44;;;18.12;52.94
58821;BME280;70670;52.476;13.334;2023-07-08T03:12:34;101479.91;;;18.06;52.77
58821;BME280;70670;52.476;13.334;2023-07-08T03:15:00;101429.28;;;17.83;53.06
58821;BME280;70670;52.476;13.334;2023-07-08T03:17:26;101404.63;;;17.75;52.99
58821;BME280;70670;52.476;13.334;2023-07-08T03:19:52;101463.19;;;18.12;52.83
58821;BME280;70670;52.476;13.334;2023-07-08T03:22:17;101468.16;;;18.18;53.17
58821;BME280;70670;52.476;13.334;2023-07-08T03:24:43;101478.75;;;18.22;53.12
58821;BME280;70670;52.476;13.334;2023-07-08T03:27:13;101409.56;;;17.81;52.90
58821;BME280;70670;52.476;13.334;2023-07-08T03:29:39;101472.56;;;18.19;53.46
58821;BME280;70670;52.476;13.334;2023-07-08T03:32:05;101471.59;;;18.21;53.43
58821;BME280;70670;52.476;13.334;2023-07-08T03:34:31;101467.91;;;18.22;53.35
58821;BME280;70670;52.476;13.334;2023-07-08T03:36:57;101464.22;;;18.23;53.31
58821;BME280;70670;52.476;13.334;2023-07-08T03:39:24;101465.94;;;18.24;52.82
58821;BME280;70670;52.476;13.334;2023-07-08T03:41:51;101414.53;;;17.87;52.13
58821;BME280;70670;52.476;13.334;2023-07-08T03:44:17;101421.25;;;17.94;52.22
58821;BME280;70670;52.476;13.334;2023-07-08T03:46:47;101479.28;;;18.27;52.36
58821;BME280;70670;52.476;13.334;2023-07-08T03:49:16;101472.63;;;18.31;52.30
58821;BME280;70670;52.476;13.334;2023-07-08T03:51:42;101483.25;;;18.34;51.96
58821;BME280;70670;52.476;13.334;2023-07-08T03:54:11;101413.63;;;17.99;52.41
58821;BME280;70670;52.476;13.334;2023-07-08T03:56:37;101477.34;;;18.40;52.82
58821;BME280;70670;52.476;13.334;2023-07-08T03:59:03;101472.78;;;18.40;52.48
58821;BME280;70670;52.476;13.334;2023-07-08T04:01:28;101362.81;;;17.79;53.10
58821;BME280;70670;52.476;13.334;2023-07-08T04:03:55;101478.75;;;18.46;53.03
58821;BME280;70670;52.476;13.334;2023-07-08T04:06:22;101477.13;;;18.43;53.26
58821;BME280;70670;52.476;13.334;2023-07-08T04:08:49;101477.13;;;18.43;52.78
58821;BME280;70670;52.476;13.334;2023-07-08T04:11:23;101456.16;;;18.34;52.20
58821;BME280;70670;52.476;13.334;2023-07-08T04:13:50;101480.34;;;18.48;52.27
58821;BME280;70670;52.476;13.334;2023-07-08T04:16:21;101476.41;;;18.52;52.52
58821;BME280;70670;52.476;13.334;2023-07-08T04:18:48;101480.38;;;18.59;52.38
58821;BME280;70670;52.476;13.334;2023-07-08T04:21:17;101435.84;;;18.39;52.20
58821;BME280;70670;52.476;13.334;2023-07-08T04:23:43;101473.94;;;18.73;52.06
58821;BME280;70670;52.476;13.334;2023-07-08T04:26:09;101482.81;;;18.75;52.26
58821;BME280;70670;52.476;13.334;2023-07-08T04:28:35;101432.41;;;18.49;51.86
58821;BME280;70670;52.476;13.334;2023-07-08T04:31:01;101481.59;;;18.79;52.30
58821;BME280;70670;52.476;13.334;2023-07-08T04:33:27;101479.63;;;18.81;52.03
58821;BME280;70670;52.476;13.334;2023-07-08T04:35:53;101482.09;;;18.84;52.33
58821;BME280;70670;52.476;13.334;2023-07-08T04:38:22;101447.91;;;18.71;51.71
58821;BME280;70670;52.476;13.334;2023-07-08T04:40:49;101491.38;;;18.93;51.91
58821;BME280;70670;52.476;13.334;2023-07-08T04:43:16;101461.75;;;18.79;51.90
58821;BME280;70670;52.476;13.334;2023-07-08T04:45:44;101481.25;;;18.95;51.86
58821;BME280;70670;52.476;13.334;2023-07-08T04:48:13;101424.84;;;18.65;51.71
58821;BME280;70670;52.476;13.334;2023-07-08T04:50:40;101490.66;;;19.13;51.29
58821;BME280;70670;52.476;13.334;2023-07-08T04:53:07;101461.28;;;19.07;51.17
58821;BME280;70670;52.476;13.334;2023-07-08T04:55:33;101482.78;;;19.22;50.98
58821;BME280;70670;52.476;13.334;2023-07-08T04:57:59;101479.69;;;19.26;51.21
58821;BME280;70670;52.476;13.334;2023-07-08T05:00:24;101465.50;;;19.23;50.94
58821;BME280;70670;52.476;13.334;2023-07-08T05:02:50;101486.72;;;19.40;50.22
58821;BME280;70670;52.476;13.334;2023-07-08T05:05:16;101480.09;;;19.44;50.11
58821;BME280;70670;52.476;13.334;2023-07-08T05:07:41;101489.59;;;19.50;50.12
58821;BME280;70670;52.476;13.334;2023-07-08T05:10:07;101485.00;;;19.50;49.21
58821;BME280;70670;52.476;13.334;2023-07-08T05:12:33;101485.38;;;19.57;49.35
58821;BME280;70670;52.476;13.334;2023-07-08T05:14:58;101483.41;;;19.59;49.26
58821;BME280;70670;52.476;13.334;2023-07-08T05:17:24;101455.00;;;19.52;49.35
58821;BME280;70670;52.476;13.334;2023-07-08T05:19:50;101480.72;;;19.70;49.69
58821;BME280;70670;52.476;13.334;2023-07-08T05:22:17;101477.13;;;19.81;49.39
58821;BME280;70670;52.476;13.334;2023-07-08T05:24:43;101481.19;;;19.86;49.32
58821;BME280;70670;52.476;13.334;2023-07-08T05:27:09;101487.47;;;19.98;49.25
58821;BME280;70670;52.476;13.334;2023-07-08T05:29:35;101491.16;;;20.08;48.82
58821;BME280;70670;52.476;13.334;2023-07-08T05:32:01;101487.16;;;20.24;49.37
58821;BME280;70670;52.476;13.334;2023-07-08T05:34:27;101485.16;;;20.26;48.89
58821;BME280;70670;52.476;13.334;2023-07-08T05:36:53;101495.00;;;20.38;48.47
58821;BME280;70670;52.476;13.334;2023-07-08T05:39:19;101482.16;;;20.40;48.25
58821;BME280;70670;52.476;13.334;2023-07-08T05:41:44;101490.78;;;20.45;47.73
58821;BME280;70670;52.476;13.334;2023-07-08T05:44:10;101490.41;;;20.50;47.96
58821;BME280;70670;52.476;13.334;2023-07-08T05:46:37;101480.41;;;20.50;47.65
58821;BME280;70670;52.476;13.334;2023-07-08T05:49:02;101494.19;;;20.58;47.00
58821;BME280;70670;52.476;13.334;2023-07-08T05:51:28;101441.69;;;20.47;47.06
58821;BME280;70670;52.476;13.334;2023-07-08T05:53:53;101444.31;;;20.48;47.19
58821;BME280;70670;52.476;13.334;2023-07-08T05:56:19;101499.53;;;20.81;46.69
58821;BME280;70670;52.476;13.334;2023-07-08T05:58:45;101489.13;;;20.86;46.75
58821;BME280;70670;52.476;13.334;2023-07-08T06:01:10;101437.84;;;20.60;46.54
58821;BME280;70670;52.476;13.334;2023-07-08T06:03:37;101471.94;;;20.85;46.18
58821;BME280;70670;52.476;13.334;2023-07-08T06:06:02;101503.34;;;21.10;46.66
58821;BME280;70670;52.476;13.334;2023-07-08T06:08:31;101505.09;;;21.21;46.27
58821;BME280;70670;52.476;13.334;2023-07-08T06:10:57;101487.97;;;21.09;46.28
58821;BME280;70670;52.476;13.334;2023-07-08T06:13:22;101507.50;;;21.35;46.17
58821;BME280;70670;52.476;13.334;2023-07-08T06:15:48;101497.66;;;21.44;46.38
58821;BME280;70670;52.476;13.334;2023-07-08T06:18:13;101500.31;;;21.55;46.19
58821;BME280;70670;52.476;13.334;2023-07-08T06:20:39;101506.19;;;21.60;45.78
58821;BME280;70670;52.476;13.334;2023-07-08T06:23:05;101507.38;;;21.68;46.12
58821;BME280;70670;52.476;13.334;2023-07-08T06:25:31;101492.56;;;21.60;45.80
58821;BME280;70670;52.476;13.334;2023-07-08T06:27:57;101512.31;;;21.83;45.58
58821;BME280;70670;52.476;13.334;2023-07-08T06:30:23;101506.00;;;21.93;45.39
58821;BME280;70670;52.476;13.334;2023-07-08T06:32:48;101449.56;;;21.64;45.39
58821;BME280;70670;52.476;13.334;2023-07-08T06:35:14;101458.78;;;21.73;45.22
58821;BME280;70670;52.476;13.334;2023-07-08T06:37:40;101510.34;;;22.05;45.17
58821;BME280;70670;52.476;13.334;2023-07-08T06:40:07;101447.88;;;21.73;44.91
58821;BME280;70670;52.476;13.334;2023-07-08T06:42:32;101494.56;;;22.08;44.67
58821;BME280;70670;52.476;13.334;2023-07-08T06:44:58;101489.78;;;22.22;45.10
58821;BME280;70670;52.476;13.334;2023-07-08T06:47:23;101493.34;;;22.32;45.09
58821;BME280;70670;52.476;13.334;2023-07-08T06:49:49;101498.25;;;22.38;44.52
58821;BME280;70670;52.476;13.334;2023-07-08T06:52:15;101443.63;;;22.09;44.45
58821;BME280;70670;52.476;13.334;2023-07-08T06:54:40;101465.38;;;22.30;44.16
58821;BME280;70670;52.476;13.334;2023-07-08T06:57:06;101477.13;;;22.40;44.04
58821;BME280;70670;52.476;13.334;2023-07-08T06:59:32;101489.63;;;22.62;43.97
58821;BME280;70670;52.476;13.334;2023-07-08T07:01:58;101474.97;;;22.63;43.96
58821;BME280;70670;52.476;13.334;2023-07-08T07:04:24;101490.78;;;22.79;43.20
58821;BME280;70670;52.476;13.334;2023-07-08T07:06:49;101495.22;;;22.90;43.13
58821;BME280;70670;52.476;13.334;2023-07-08T07:09:15;101503.13;;;23.02;42.89
58821;BME280;70670;52.476;13.334;2023-07-08T07:11:40;101493.34;;;23.00;41.64
58821;BME280;70670;52.476;13.334;2023-07-08T07:14:06;101489.59;;;23.11;41.53
58821;BME280;70670;52.476;13.334;2023-07-08T07:16:32;101499.06;;;23.26;40.99
58821;BME280;70670;52.476;13.334;2023-07-08T07:18:57;101493.88;;;23.33;41.06
58821;BME280;70670;52.476;13.334;2023-07-08T07:21:23;101499.56;;;23.39;41.29
58821;BME280;70670;52.476;13.334;2023-07-08T07:23:49;101495.63;;;23.51;41.03
58821;BME280;70670;52.476;13.334;2023-07-08T07:26:14;101464.50;;;23.44;40.84
58821;BME280;70670;52.476;13.334;2023-07-08T07:28:40;101498.63;;;23.68;40.44
58821;BME280;70670;52.476;13.334;2023-07-08T07:31:06;101494.59;;;23.72;39.86
58821;BME280;70670;52.476;13.334;2023-07-08T07:33:32;101494.84;;;23.78;39.83
58821;BME280;70670;52.476;13.334;2023-07-08T07:35:58;101490.50;;;23.86;40.12
58821;BME280;70670;52.476;13.334;2023-07-08T07:38:24;101488.09;;;24.00;39.60
58821;BME280;70670;52.476;13.334;2023-07-08T07:40:57;101437.31;;;23.80;39.46
58821;BME280;70670;52.476;13.334;2023-07-08T07:43:25;101495.72;;;24.24;40.18
58821;BME280;70670;52.476;13.334;2023-07-08T07:45:52;101500.13;;;24.35;40.05
58821;BME280;70670;52.476;13.334;2023-07-08T07:48:19;101501.47;;;24.49;40.26
58821;BME280;70670;52.476;13.334;2023-07-08T07:50:50;101447.03;;;24.28;39.67
58821;BME280;70670;52.476;13.334;2023-07-08T07:53:17;101498.56;;;24.68;40.16
58821;BME280;70670;52.476;13.334;2023-07-08T07:55:43;101479.78;;;24.73;39.75
58821;BME280;70670;52.476;13.334;2023-07-08T07:58:09;101495.78;;;24.86;38.27
58821;BME280;70670;52.476;13.334;2023-07-08T08:00:37;101488.84;;;24.92;37.54
58821;BME280;70670;52.476;13.334;2023-07-08T08:03:03;101480.31;;;24.95;37.39
58821;BME280;70670;52.476;13.334;2023-07-08T08:05:29;101488.41;;;25.05;38.04
58821;BME280;70670;52.476;13.334;2023-07-08T08:07:55;101453.38;;;24.90;38.45
58821;BME280;70670;52.476;13.334;2023-07-08T08:10:20;101484.78;;;25.22;38.68
58821;BME280;70670;52.476;13.334;2023-07-08T08:12:46;101489.94;;;25.25;38.24
58821;BME280;70670;52.476;13.334;2023-07-08T08:15:16;101490.84;;;25.34;38.55
58821;BME280;70670;52.476;13.334;2023-07-08T08:17:42;101500.38;;;25.47;36.92
58821;BME280;70670;52.476;13.334;2023-07-08T08:20:12;101491.09;;;25.48;35.92
58821;BME280;70670;52.476;13.334;2023-07-08T08:22:38;101481.00;;;25.49;35.42
58821;BME280;70670;52.476;13.334;2023-07-08T08:25:04;101490.47;;;25.55;35.76
58821;BME280;70670;52.476;13.334;2023-07-08T08:27:30;101492.94;;;25.66;35.70
58821;BME280;70670;52.476;13.334;2023-07-08T08:29:55;101494.81;;;25.73;36.35
58821;BME280;70670;52.476;13.334;2023-07-08T08:32:21;101489.25;;;25.83;36.05
58821;BME280;70670;52.476;13.334;2023-07-08T08:34:46;101500.94;;;25.93;36.76
58821;BME280;70670;52.476;13.334;2023-07-08T08:37:12;101498.56;;;25.98;35.81
58821;BME280;70670;52.476;13.334;2023-07-08T08:39:38;101487.63;;;26.07;36.20
58821;BME280;70670;52.476;13.334;2023-07-08T08:42:04;101447.44;;;25.89;35.55
58821;BME280;70670;52.476;13.334;2023-07-08T08:44:34;101485.09;;;26.21;35.20
58821;BME280;70670;52.476;13.334;2023-07-08T08:47:40;101489.03;;;26.35;35.32
58821;BME280;70670;52.476;13.334;2023-07-08T08:50:31;101494.91;;;26.48;35.06
58821;BME280;70670;52.476;13.334;2023-07-08T08:52:59;101440.16;;;26.39;35.08
58821;BME280;70670;52.476;13.334;2023-07-08T08:55:26;101481.72;;;26.68;33.66
58821;BME280;70670;52.476;13.334;2023-07-08T09:00:53;101490.66;;;26.79;33.26
58821;BME280;70670;52.476;13.334;2023-07-08T09:03:42;101470.41;;;26.63;32.38
58821;BME280;70670;52.476;13.334;2023-07-08T09:06:15;101503.88;;;26.83;34.00
58821;BME280;70670;52.476;13.334;2023-07-08T09:08:42;101498.56;;;26.90;33.14
58821;BME280;70670;52.476;13.334;2023-07-08T09:13:50;101489.44;;;26.97;32.45
58821;BME280;70670;52.476;13.334;2023-07-08T09:16:29;101486.69;;;27.06;31.84
58821;BME280;70670;52.476;13.334;2023-07-08T09:24:17;101473.47;;;27.17;31.46
58821;BME280;70670;52.476;13.334;2023-07-08T09:26:46;101482.91;;;27.23;31.98
58821;BME280;70670;52.476;13.334;2023-07-08T09:29:12;101473.94;;;27.37;31.71
58821;BME280;70670;52.476;13.334;2023-07-08T09:31:39;101476.13;;;27.50;30.30
58821;BME280;70670;52.476;13.334;2023-07-08T09:36:32;101336.03;;;26.70;28.85
58821;BME280;70670;52.476;13.334;2023-07-08T09:39:00;101467.03;;;27.50;28.87
58821;BME280;70670;52.476;13.334;2023-07-08T09:41:33;101415.22;;;27.22;29.15
58821;BME280;70670;52.476;13.334;2023-07-08T09:44:13;101469.53;;;27.67;29.64
58821;BME280;70670;52.476;13.334;2023-07-08T09:46:39;101418.25;;;27.43;29.01
58821;BME280;70670;52.476;13.334;2023-07-08T09:49:16;101469.97;;;27.87;28.64
58821;BME280;70670;52.476;13.334;2023-07-08T09:51:44;101479.63;;;27.83;28.34
58821;BME280;70670;52.476;13.334;2023-07-08T09:54:10;101470.13;;;27.94;28.59
58821;BME280;70670;52.476;13.334;2023-07-08T09:56:40;101418.63;;;27.71;27.84
58821;BME280;70670;52.476;13.334;2023-07-08T09:59:11;101434.66;;;27.76;28.95
58821;BME280;70670;52.476;13.334;2023-07-08T10:01:39;101464.22;;;28.05;29.05
58821;BME280;70670;52.476;13.334;2023-07-08T10:04:05;101460.25;;;28.08;29.26
58821;BME280;70670;52.476;13.334;2023-07-08T10:06:32;101420.06;;;27.99;29.67
58821;BME280;70670;52.476;13.334;2023-07-08T10:09:04;101464.34;;;28.43;28.77
58821;BME280;70670;52.476;13.334;2023-07-08T10:11:33;101463.97;;;28.46;27.30
58821;BME280;70670;52.476;13.334;2023-07-08T10:14:59;101468.88;;;28.59;26.65
58821;BME280;70670;52.476;13.334;2023-07-08T10:17:19;101471.06;;;28.63;27.24
58821;BME280;70670;52.476;13.334;2023-07-08T10:19:46;101464.63;;;28.71;27.86
58821;BME280;70670;52.476;13.334;2023-07-08T10:22:42;101459.81;;;28.88;27.44
58821;BME280;70670;52.476;13.334;2023-07-08T10:25:59;101469.78;;;28.89;27.23
58821;BME280;70670;52.476;13.334;2023-07-08T10:28:43;101464.47;;;28.87;26.77
58821;BME280;70670;52.476;13.334;2023-07-08T10:31:31;101456.81;;;28.98;27.39
58821;BME280;70670;52.476;13.334;2023-07-08T10:34:14;101465.50;;;29.09;26.79
58821;BME280;70670;52.476;13.334;2023-07-08T10:36:51;101425.69;;;29.12;26.17
58821;BME280;70670;52.476;13.334;2023-07-08T10:39:55;101453.75;;;29.30;26.56
58821;BME280;70670;52.476;13.334;2023-07-08T10:45:04;101462.38;;;29.27;25.21
58821;BME280;70670;52.476;13.334;2023-07-08T10:47:47;101454.56;;;29.46;26.47
58821;BME280;70670;52.476;13.334;2023-07-08T10:53:17;101455.28;;;29.62;25.11
58821;BME280;70670;52.476;13.334;2023-07-08T10:56:07;101456.97;;;29.63;25.30
58821;BME280;70670;52.476;13.334;2023-07-08T11:01:57;101447.59;;;29.58;24.84
58821;BME280;70670;52.476;13.334;2023-07-08T11:04:46;101396.75;;;29.37;25.07
58821;BME280;70670;52.476;13.334;2023-07-08T11:07:44;101437.81;;;29.77;25.00
58821;BME280;70670;52.476;13.334;2023-07-08T11:10:16;101396.75;;;29.52;25.03
58821;BME280;70670;52.476;13.334;2023-07-08T11:13:03;101413.94;;;30.20;23.60
58821;BME280;70670;52.476;13.334;2023-07-08T11:18:14;101439.97;;;30.32;24.21
58821;BME280;70670;52.476;13.334;2023-07-08T11:20:58;101433.53;;;30.25;24.23
58821;BME280;70670;52.476;13.334;2023-07-08T11:26:07;101428.16;;;30.38;23.80
58821;BME280;70670;52.476;13.334;2023-07-08T11:28:36;101424.00;;;30.28;23.77
58821;BME280;70670;52.476;13.334;2023-07-08T11:31:04;101387.69;;;29.73;23.55
58821;BME280;70670;52.476;13.334;2023-07-08T11:33:31;101423.78;;;29.93;24.56
58821;BME280;70670;52.476;13.334;2023-07-08T11:35:59;101413.09;;;29.83;24.35
58821;BME280;70670;52.476;13.334;2023-07-08T11:38:26;101410.47;;;29.97;24.33
58821;BME280;70670;52.476;13.334;2023-07-08T11:43:20;101418.22;;;30.23;24.30
58821;BME280;70670;52.476;13.334;2023-07-08T11:45:49;101403.69;;;30.35;24.97
58821;BME280;70670;52.476;13.334;2023-07-08T11:48:26;101362.16;;;30.22;24.14
58821;BME280;70670;52.476;13.334;2023-07-08T11:50:53;101398.53;;;30.54;24.22
58821;BME280;70670;52.476;13.334;2023-07-08T11:56:03;101398.63;;;30.89;23.83
58821;BME280;70670;52.476;13.334;2023-07-08T11:58:51;101406.50;;;30.92;23.86
58821;BME280;70670;52.476;13.334;2023-07-08T12:03:51;101392.56;;;31.06;23.56
58821;BME280;70670;52.476;13.334;2023-07-08T12:08:56;101393.53;;;31.20;23.21
58821;BME280;70670;52.476;13.334;2023-07-08T12:11:32;101392.53;;;31.00;22.86
58821;BME280;70670;52.476;13.334;2023-07-08T12:14:00;101398.50;;;31.03;23.28
58821;BME280;70670;52.476;13.334;2023-07-08T12:16:27;101404.88;;;31.04;22.27
58821;BME280;70670;52.476;13.334;2023-07-08T12:18:54;101385.66;;;30.40;22.81
58821;BME280;70670;52.476;13.334;2023-07-08T12:21:23;101399.72;;;30.02;22.92
58821;BME280;70670;52.476;13.334;2023-07-08T12:23:49;101377.09;;;29.92;23.50
58821;BME280;70670;52.476;13.334;2023-07-08T12:26:16;101371.56;;;30.13;23.95
58821;BME280;70670;52.476;13.334;2023-07-08T12:28:42;101385.25;;;30.43;23.93
58821;BME280;70670;52.476;13.334;2023-07-08T12:31:19;101374.38;;;30.62;23.63
58821;BME280;70670;52.476;13.334;2023-07-08T12:33:45;101395.50;;;30.98;23.82
58821;BME280;70670;52.476;13.334;2023-07-08T12:36:17;101380.50;;;31.14;22.75
58821;BME280;70670;52.476;13.334;2023-07-08T12:38:44;101378.84;;;31.26;23.93
58821;BME280;70670;52.476;13.334;2023-07-08T12:41:32;101377.00;;;31.33;22.40
58821;BME280;70670;52.476;13.334;2023-07-08T12:43:59;101350.34;;;31.26;22.81
58821;BME280;70670;52.476;13.334;2023-07-08T12:46:25;101380.13;;;31.65;22.77
58821;BME280;70670;52.476;13.334;2023-07-08T12:48:51;101379.53;;;31.76;22.77
58821;BME280;70670;52.476;13.334;2023-07-08T12:51:19;101378.97;;;31.88;21.80
58821;BME280;70670;52.476;13.334;2023-07-08T12:53:49;101376.75;;;31.76;21.42
58821;BME280;70670;52.476;13.334;2023-07-08T12:56:16;101371.22;;;31.76;21.80
58821;BME280;70670;52.476;13.334;2023-07-08T12:58:50;101371.91;;;31.85;21.94
58821;BME280;70670;52.476;13.334;2023-07-08T13:01:19;101331.31;;;31.51;22.21
58821;BME280;70670;52.476;13.334;2023-07-08T13:03:45;101324.38;;;31.68;23.01
58821;BME280;70670;52.476;13.334;2023-07-08T13:06:16;101365.31;;;31.99;21.96
58821;BME280;70670;52.476;13.334;2023-07-08T13:08:43;101369.19;;;32.05;21.95
58821;BME280;70670;52.476;13.334;2023-07-08T13:11:13;101361.47;;;31.87;21.68
58821;BME280;70670;52.476;13.334;2023-07-08T13:13:47;101368.78;;;32.08;22.38
58821;BME280;70670;52.476;13.334;2023-07-08T13:16:14;101355.78;;;32.28;22.07
58821;BME280;70670;52.476;13.334;2023-07-08T13:18:41;101360.91;;;32.58;23.05
58821;BME280;70670;52.476;13.334;2023-07-08T13:21:12;101351.31;;;32.80;22.14
58821;BME280;70670;52.476;13.334;2023-07-08T13:23:39;101335.09;;;32.91;20.61
58821;BME280;70670;52.476;13.334;2023-07-08T13:26:15;101328.47;;;32.85;20.06
58821;BME280;70670;52.476;13.334;2023-07-08T13:28:42;101349.16;;;32.89;20.21